Terminal Aerodrome Forecast
Issued by NWS Goodland, KS

Home | Current Version | Previous Version | Text Only | Print | Product List | Glossary On
Versions: 1 2 3 4 5 6 7 8 9 10 11 12 13
559
FTUS43 KGLD 021128
TAFGLD
TAF
KGLD 021128Z 0212/0312 29007KT P6SM FEW250
     FM021600 32009KT P6SM FEW250
     FM030300 26006KT P6SM SCT100
     FM030800 29010KT P6SM VCSH SCT050 BKN090
     FM031100 32012KT P6SM SCT090=

USA.gov is the U.S. government's official web portal to all federal, state and local government web resources and services.